createdAt,value
2022-12-03T00:02:34.295Z,102727.97
2022-12-03T00:05:56.386Z,102736.44
2022-12-03T00:09:18.445Z,102733.91
2022-12-03T00:12:42.499Z,102727.84
2022-12-03T00:16:04.275Z,102718.19
2022-12-03T00:19:26.357Z,102721.09
2022-12-03T00:22:48.675Z,102731.06
2022-12-03T00:26:10.856Z,102733.91
2022-12-03T00:29:34.642Z,102725.31
2022-12-03T00:32:56.444Z,102726.09
2022-12-03T00:36:18.274Z,102710.28
2022-12-03T00:39:40.115Z,102725.13
2022-12-03T00:43:05.587Z,102717.50
2022-12-03T00:46:29.479Z,102720.03
2022-12-03T00:49:51.871Z,102715.38
2022-12-03T00:53:13.898Z,102727.66
2022-12-03T00:56:35.900Z,102709.59
2022-12-03T00:59:57.567Z,102721.09
2022-12-03T01:03:20.976Z,102723.75
2022-12-03T01:06:43.044Z,102723.75
2022-12-03T01:10:05.528Z,102711.81
2022-12-03T01:13:27.467Z,102708.59
2022-12-03T01:16:49.810Z,102726.06
2022-12-03T01:20:14.111Z,102716.88
2022-12-03T01:23:35.963Z,102702.03
2022-12-03T01:26:58.128Z,102718.75
2022-12-03T01:30:20.496Z,102716.28
2022-12-03T01:33:41.231Z,102709.34
2022-12-03T01:37:04.801Z,102711.88
2022-12-03T01:40:27.024Z,102709.34
2022-12-03T01:43:50.216Z,102691.69
2022-12-03T01:47:15.159Z,102699.50
2022-12-03T01:50:37.081Z,102696.94
2022-12-03T01:54:02.190Z,102704.88
2022-12-03T01:57:28.324Z,102711.13
2022-12-03T02:00:50.190Z,102709.53
2022-12-03T02:04:15.356Z,102710.25
2022-12-03T02:07:37.232Z,102706.81
2022-12-03T02:11:06.503Z,102716.09
2022-12-03T02:14:28.357Z,102707.41
2022-12-03T02:17:50.391Z,102715.72
2022-12-03T02:21:18.400Z,102715.44
2022-12-03T02:24:47.659Z,102707.34
2022-12-03T02:28:11.626Z,102718.66
2022-12-03T02:31:33.704Z,102705.66
2022-12-03T02:34:55.959Z,102705.00
2022-12-03T02:38:21.515Z,102716.69
2022-12-03T02:42:01.352Z,102710.56
2022-12-03T02:45:28.950Z,102714.16
2022-12-03T02:48:50.822Z,102704.00
2022-12-03T02:52:13.219Z,102706.66
2022-12-03T02:55:37.517Z,102700.59
2022-12-03T02:59:04.459Z,102692.50
2022-12-03T03:02:28.525Z,102697.97
2022-12-03T03:05:51.616Z,102690.06
2022-12-03T03:09:13.917Z,102689.28
2022-12-03T03:12:39.397Z,102695.06
2022-12-03T03:16:03.613Z,102690.75
2022-12-03T03:19:27.760Z,102691.53
2022-12-03T03:22:49.569Z,102687.94
2022-12-03T03:26:14.603Z,102687.06
2022-12-03T03:29:36.795Z,102685.38
2022-12-03T03:32:58.973Z,102687.81
2022-12-03T03:36:23.499Z,102692.03
2022-12-03T03:39:45.362Z,102689.97
2022-12-03T03:43:08.431Z,102693.41
2022-12-03T03:46:33.400Z,102700.59
2022-12-03T03:49:55.901Z,102690.19
2022-12-03T03:53:19.790Z,102689.78
2022-12-03T03:56:42.284Z,102686.00
2022-12-03T04:00:06.107Z,102684.03
2022-12-03T04:03:29.241Z,102684.63
2022-12-03T04:06:51.857Z,102679.03
2022-12-03T04:10:33.172Z,102682.84
2022-12-03T04:13:55.217Z,102681.56
2022-12-03T04:17:17.418Z,102685.56
2022-12-03T04:20:39.456Z,102676.78
2022-12-03T04:24:00.969Z,102670.34
2022-12-03T04:27:41.852Z,102679.59
2022-12-03T04:31:24.234Z,102666.63
2022-12-03T04:35:03.770Z,102680.97
2022-12-03T04:38:25.723Z,102676.66
2022-12-03T04:41:47.425Z,102665.03
2022-12-03T04:45:11.553Z,102683.97
2022-12-03T04:48:33.324Z,102671.78
2022-12-03T04:51:55.381Z,102661.09
2022-12-03T04:55:17.463Z,102672.03
2022-12-03T04:58:39.672Z,102671.16
2022-12-03T05:02:03.426Z,102676.03
2022-12-03T05:05:25.563Z,102674.94
2022-12-03T05:08:47.581Z,102672.97
2022-12-03T05:12:09.417Z,102665.88
2022-12-03T05:15:31.162Z,102672.47
2022-12-03T05:18:54.628Z,102667.19
2022-12-03T05:22:16.475Z,102667.00
2022-12-03T05:25:38.692Z,102668.34
2022-12-03T05:29:00.993Z,102665.41
2022-12-03T05:32:23.050Z,102673.47
2022-12-03T05:35:46.257Z,102662.84
2022-12-03T05:39:08.091Z,102656.69
2022-12-03T05:42:47.572Z,102665.91
2022-12-03T05:46:09.378Z,102661.44
2022-12-03T05:49:31.355Z,102668.03
2022-12-03T05:52:54.818Z,102665.28
2022-12-03T05:56:16.524Z,102659.72
2022-12-03T05:59:38.545Z,102672.59
2022-12-03T06:03:00.578Z,102676.44
2022-12-03T06:06:22.495Z,102672.81
2022-12-03T06:09:46.139Z,102677.31
2022-12-03T06:13:07.977Z,102658.75
2022-12-03T06:16:30.205Z,102665.69
2022-12-03T06:19:52.310Z,102675.34
2022-12-03T06:23:13.881Z,102651.94
2022-12-03T06:26:37.050Z,102680.50
2022-12-03T06:29:58.827Z,102677.97
2022-12-03T06:33:20.916Z,102670.28
2022-12-03T06:36:43.048Z,102681.28
2022-12-03T06:40:05.168Z,102677.00
2022-12-03T06:43:28.714Z,102681.84
2022-12-03T06:46:51.049Z,102673.72
2022-12-03T06:50:13.891Z,102682.75
2022-12-03T06:53:36.140Z,102681.88
2022-12-03T06:56:58.055Z,102675.94
2022-12-03T07:00:25.538Z,102678.56
2022-12-03T07:03:48.321Z,102683.09
2022-12-03T07:07:10.112Z,102682.97
2022-12-03T07:10:32.085Z,102685.63
2022-12-03T07:13:54.164Z,102684.28
2022-12-03T07:17:17.390Z,102673.00
2022-12-03T07:20:39.628Z,102675.41
2022-12-03T07:24:01.708Z,102680.34
2022-12-03T07:27:23.405Z,102687.59
2022-12-03T07:30:45.144Z,102676.59
2022-12-03T07:34:08.339Z,102677.47
2022-12-03T07:37:30.134Z,102681.75
2022-12-03T07:40:52.143Z,102684.41
2022-12-03T07:44:15.026Z,102679.34
2022-12-03T07:47:36.945Z,102675.38
2022-12-03T07:51:00.561Z,102679.75
2022-12-03T07:54:26.188Z,102670.38
2022-12-03T07:57:48.418Z,102690.06
2022-12-03T08:01:11.522Z,102684.34
2022-12-03T08:04:33.338Z,102672.13
2022-12-03T08:07:57.165Z,102688.91
2022-12-03T08:11:20.121Z,102683.84
2022-12-03T08:14:42.080Z,102683.44
2022-12-03T08:18:09.635Z,102683.84
2022-12-03T08:21:37.622Z,102685.94
2022-12-03T08:25:01.179Z,102683.16
2022-12-03T08:28:25.977Z,102683.31
2022-12-03T08:31:52.230Z,102686.38
2022-12-03T08:35:16.395Z,102682.06
2022-12-03T08:38:38.503Z,102688.00
2022-12-03T08:42:32.190Z,102697.69
2022-12-03T08:45:56.183Z,102689.41
2022-12-03T08:49:19.426Z,102691.41
2022-12-03T08:52:41.279Z,102689.38
2022-12-03T08:56:06.164Z,102682.09
2022-12-03T08:59:30.869Z,102681.13
2022-12-03T09:02:54.988Z,102666.19
2022-12-03T09:06:17.285Z,102679.19
2022-12-03T09:09:38.806Z,102696.25
2022-12-03T09:13:00.886Z,102687.38
2022-12-03T09:16:24.487Z,102689.72
2022-12-03T09:19:46.573Z,102682.25
2022-12-03T09:23:08.699Z,102687.03
2022-12-03T09:26:33.227Z,102678.66
2022-12-03T09:29:55.379Z,102691.03
2022-12-03T09:33:19.152Z,102689.09
2022-12-03T09:36:43.165Z,102687.63
2022-12-03T09:40:05.489Z,102691.63
2022-12-03T09:43:49.448Z,102695.16
2022-12-03T09:47:11.472Z,102685.97
2022-12-03T09:50:35.864Z,102686.47
2022-12-03T09:54:00.089Z,102686.88
2022-12-03T09:57:22.269Z,102692.59
2022-12-03T10:00:48.171Z,102684.63
2022-12-03T10:04:10.608Z,102683.03
2022-12-03T10:07:34.051Z,102685.00
2022-12-03T10:10:57.696Z,102675.91
2022-12-03T10:14:21.054Z,102664.22
2022-12-03T10:17:43.575Z,102676.41
2022-12-03T10:21:05.575Z,102684.09
2022-12-03T10:24:30.665Z,102680.59
2022-12-03T10:27:59.185Z,102671.03
2022-12-03T10:31:21.051Z,102678.94
2022-12-03T10:34:44.867Z,102664.09
2022-12-03T10:38:08.897Z,102668.41
2022-12-03T10:41:32.124Z,102669.19
2022-12-03T10:45:09.946Z,102656.59
2022-12-03T10:48:31.816Z,102662.94
2022-12-03T10:51:53.792Z,102664.97
2022-12-03T10:55:16.756Z,102667.31
2022-12-03T10:58:41.715Z,102658.44
2022-12-03T11:02:05.159Z,102656.59
2022-12-03T11:05:28.633Z,102662.34
2022-12-03T11:08:57.110Z,102662.66
2022-12-03T11:12:22.152Z,102659.91
2022-12-03T11:15:46.823Z,102651.31
2022-12-03T11:19:17.875Z,102659.25
2022-12-03T11:22:44.827Z,102649.28
2022-12-03T11:26:06.794Z,102646.94
2022-12-03T11:29:51.187Z,102639.13
2022-12-03T11:33:25.004Z,102633.00
2022-12-03T11:37:20.504Z,102645.38
2022-12-03T11:41:08.913Z,102650.63
2022-12-03T11:44:36.943Z,102655.72
2022-12-03T11:48:12.947Z,102641.34
2022-12-03T11:51:36.449Z,102625.38
2022-12-03T11:55:02.941Z,102628.41
2022-12-03T11:58:28.143Z,102634.84
2022-12-03T12:01:49.820Z,102622.38
2022-12-03T12:05:28.590Z,102633.28
2022-12-03T12:09:00.309Z,102624.59
2022-12-03T12:12:29.527Z,102636.59
2022-12-03T12:15:51.486Z,102635.75
2022-12-03T12:19:33.833Z,102631.34
2022-12-03T12:22:56.485Z,102641.91
2022-12-03T12:26:20.248Z,102642.34
2022-12-03T12:29:44.247Z,102639.81
2022-12-03T12:33:25.770Z,102641.59
2022-12-03T12:36:48.171Z,102637.41
2022-12-03T12:40:19.125Z,102634.06
2022-12-03T12:43:42.613Z,102635.13
2022-12-03T12:47:13.932Z,102626.66
2022-12-03T12:50:36.296Z,102624.69
2022-12-03T12:53:58.943Z,102620.22
2022-12-03T12:57:24.821Z,102625.78
2022-12-03T13:00:51.916Z,102622.66
2022-12-03T13:04:16.531Z,102620.59
2022-12-03T13:07:39.337Z,102635.34
2022-12-03T13:11:02.878Z,102630.19
2022-12-03T13:14:26.386Z,102633.78
2022-12-03T13:17:50.183Z,102637.88
2022-12-03T13:21:22.892Z,102636.81
2022-12-03T13:24:47.800Z,102638.47
2022-12-03T13:28:09.904Z,102638.47
2022-12-03T13:31:43.484Z,102639.34
2022-12-03T13:35:16.268Z,102620.53
2022-12-03T13:38:38.571Z,102631.94
2022-12-03T13:42:31.472Z,102626.25
2022-12-03T13:45:55.504Z,102627.06
2022-12-03T13:49:22.923Z,102640.31
2022-12-03T13:52:46.232Z,102629.38
2022-12-03T13:56:27.448Z,102636.72
2022-12-03T13:59:49.468Z,102626.84
2022-12-03T14:03:11.158Z,102634.47
2022-12-03T14:06:33.924Z,102622.38
2022-12-03T14:09:57.645Z,102630.66
2022-12-03T14:13:19.820Z,102637.00
2022-12-03T14:16:42.950Z,102632.81
2022-12-03T14:20:05.997Z,102632.03
2022-12-03T14:23:28.189Z,102637.97
2022-12-03T14:26:51.897Z,102627.53
2022-12-03T14:30:14.744Z,102629.50
2022-12-03T14:33:36.519Z,102642.25
2022-12-03T14:36:58.962Z,102627.44
2022-12-03T14:40:23.283Z,102627.72
2022-12-03T14:43:46.453Z,102626.97
2022-12-03T14:47:08.587Z,102633.97
2022-12-03T14:50:30.765Z,102643.44
2022-12-03T14:53:52.636Z,102636.50
2022-12-03T14:57:16.861Z,102635.53
2022-12-03T15:00:40.417Z,102632.78
2022-12-03T15:04:02.312Z,102630.38
2022-12-03T15:07:24.261Z,102639.16
2022-12-03T15:10:46.572Z,102643.44
2022-12-03T15:14:09.954Z,102645.19
2022-12-03T15:17:33.851Z,102636.22
2022-12-03T15:20:55.891Z,102631.94
2022-12-03T15:24:18.047Z,102641.50
2022-12-03T15:27:41.626Z,102626.25
2022-12-03T15:31:03.562Z,102635.81
2022-12-03T15:34:26.970Z,102629.09
2022-12-03T15:37:48.890Z,102636.41
2022-12-03T15:41:24.698Z,102636.59
2022-12-03T15:44:46.447Z,102617.50
2022-12-03T15:48:08.591Z,102636.97
2022-12-03T15:51:32.102Z,102628.59
2022-12-03T15:54:55.305Z,102629.28
2022-12-03T15:58:17.151Z,102624.09
2022-12-03T16:01:38.975Z,102623.31
2022-12-03T16:05:01.142Z,102614.34
2022-12-03T16:08:24.516Z,102630.44
2022-12-03T16:11:46.288Z,102626.94
2022-12-03T16:15:09.196Z,102630.03
2022-12-03T16:18:32.237Z,102639.97
2022-12-03T16:21:54.352Z,102633.13
2022-12-03T16:25:17.388Z,102641.06
2022-12-03T16:28:39.612Z,102632.63
2022-12-03T16:32:02.092Z,102629.50
2022-12-03T16:35:24.036Z,102629.69
2022-12-03T16:38:46.012Z,102632.88
2022-12-03T16:42:16.203Z,102634.81
2022-12-03T16:46:02.369Z,102627.31
2022-12-03T16:49:24.124Z,102630.41
2022-12-03T16:52:47.747Z,102622.97
2022-12-03T16:56:10.054Z,102622.34
2022-12-03T16:59:33.316Z,102622.78
2022-12-03T17:02:55.409Z,102631.53
2022-12-03T17:06:17.399Z,102625.56
2022-12-03T17:09:40.027Z,102623.84
2022-12-03T17:13:09.224Z,102630.16
2022-12-03T17:16:33.671Z,102630.44
2022-12-03T17:19:55.717Z,102628.66
2022-12-03T17:23:18.014Z,102619.28
2022-12-03T17:26:41.946Z,102623.88
2022-12-03T17:30:06.432Z,102622.38
2022-12-03T17:33:29.608Z,102628.88
2022-12-03T17:36:51.738Z,102619.38
2022-12-03T17:40:15.590Z,102626.78
2022-12-03T17:43:37.639Z,102629.56
2022-12-03T17:46:59.698Z,102619.31
2022-12-03T17:50:23.332Z,102630.91
2022-12-03T17:53:45.178Z,102619.84
2022-12-03T17:57:06.862Z,102620.91
2022-12-03T18:00:29.530Z,102620.28
2022-12-03T18:03:51.684Z,102625.53
2022-12-03T18:07:15.056Z,102630.19
2022-12-03T18:10:37.447Z,102610.44
2022-12-03T18:14:01.562Z,102629.81
2022-12-03T18:17:23.429Z,102614.38
2022-12-03T18:20:45.645Z,102600.53
2022-12-03T18:24:09.696Z,102624.13
2022-12-03T18:27:31.660Z,102620.94
2022-12-03T18:30:54.246Z,102621.94
2022-12-03T18:34:16.028Z,102617.81
2022-12-03T18:37:38.528Z,102615.50
2022-12-03T18:41:05.602Z,102616.47
2022-12-03T18:44:28.991Z,102604.19
2022-12-03T18:47:51.113Z,102618.47
2022-12-03T18:51:18.719Z,102609.78
2022-12-03T18:54:41.856Z,102599.34
2022-12-03T18:58:06.042Z,102603.13
2022-12-03T19:01:28.329Z,102621.69
2022-12-03T19:04:51.310Z,102620.19
2022-12-03T19:08:15.345Z,102624.59
2022-12-03T19:11:38.126Z,102629.03
2022-12-03T19:15:01.471Z,102630.06
2022-12-03T19:18:24.013Z,102629.31
2022-12-03T19:21:46.059Z,102635.50
2022-12-03T19:25:08.252Z,102634.88
2022-12-03T19:28:30.748Z,102635.94
2022-12-03T19:31:54.391Z,102641.97
2022-12-03T19:35:16.476Z,102647.84
2022-12-03T19:38:39.047Z,102646.00
2022-12-03T19:42:00.926Z,102619.13
2022-12-03T19:45:23.125Z,102626.91
2022-12-03T19:48:46.584Z,102638.53
2022-12-03T19:52:08.575Z,102628.03
2022-12-03T19:55:30.733Z,102653.13
2022-12-03T19:58:56.697Z,102649.31
2022-12-03T20:02:18.878Z,102650.34
2022-12-03T20:05:42.477Z,102652.25
2022-12-03T20:09:07.702Z,102650.63
2022-12-03T20:12:29.468Z,102647.16
2022-12-03T20:15:51.588Z,102644.56
2022-12-03T20:19:18.536Z,102638.50
2022-12-03T20:22:42.008Z,102637.72
2022-12-03T20:26:04.033Z,102636.91
2022-12-03T20:29:26.042Z,102616.97
2022-12-03T20:32:48.280Z,102635.31
2022-12-03T20:36:12.266Z,102631.88
2022-12-03T20:39:35.789Z,102635.50
2022-12-03T20:42:57.574Z,102640.75
2022-12-03T20:46:22.007Z,102637.13
2022-12-03T20:49:44.051Z,102632.69
2022-12-03T20:53:23.872Z,102639.94
2022-12-03T20:56:48.043Z,102638.25
2022-12-03T21:00:10.595Z,102642.56
2022-12-03T21:03:33.095Z,102651.25
2022-12-03T21:06:55.270Z,102652.19
2022-12-03T21:10:31.243Z,102645.53
2022-12-03T21:13:55.485Z,102649.19
2022-12-03T21:17:17.309Z,102644.09
2022-12-03T21:20:42.849Z,102631.50
2022-12-03T21:24:05.323Z,102644.56
2022-12-03T21:27:30.435Z,102646.41
2022-12-03T21:30:53.490Z,102649.91
2022-12-03T21:34:15.779Z,102642.41
2022-12-03T21:37:37.665Z,102644.25
2022-12-03T21:41:00.272Z,102645.22
2022-12-03T21:44:22.179Z,102635.00
2022-12-03T21:47:48.335Z,102626.34
2022-12-03T21:51:12.946Z,102645.38
2022-12-03T21:54:35.029Z,102646.25
2022-12-03T21:58:05.592Z,102647.25
2022-12-03T22:01:27.677Z,102643.75
2022-12-03T22:04:52.484Z,102648.13
2022-12-03T22:08:14.744Z,102648.94
2022-12-03T22:11:36.955Z,102654.84
2022-12-03T22:14:59.246Z,102653.94
2022-12-03T22:18:21.532Z,102655.63
2022-12-03T22:21:45.056Z,102652.16
2022-12-03T22:25:07.225Z,102646.88
2022-12-03T22:28:29.076Z,102654.75
2022-12-03T22:31:51.207Z,102652.22
2022-12-03T22:35:13.262Z,102648.84
2022-12-03T22:38:36.791Z,102650.63
2022-12-03T22:41:58.400Z,102651.50
2022-12-03T22:45:20.036Z,102655.72
2022-12-03T22:48:42.599Z,102659.84
2022-12-03T22:52:04.518Z,102660.81
2022-12-03T22:55:28.217Z,102649.81
2022-12-03T22:58:51.884Z,102662.66
2022-12-03T23:02:13.560Z,102652.47
2022-12-03T23:05:37.077Z,102657.63
2022-12-03T23:09:00.190Z,102657.63
2022-12-03T23:12:23.581Z,102657.63
2022-12-03T23:15:46.890Z,102660.28
2022-12-03T23:19:09.007Z,102659.47
2022-12-03T23:22:31.281Z,102664.72
2022-12-03T23:25:58.693Z,102665.59
2022-12-03T23:29:21.856Z,102662.31
2022-12-03T23:32:44.552Z,102643.19
2022-12-03T23:36:09.188Z,102658.75
2022-12-03T23:39:30.860Z,102661.59
2022-12-03T23:42:52.995Z,102659.06
2022-12-03T23:46:18.630Z,102658.25
2022-12-03T23:49:40.522Z,102658.34
2022-12-03T23:53:02.669Z,102663.50
2022-12-03T23:56:26.789Z,102662.69
2022-12-03T23:59:50.513Z,102653.41
